createdAt,value
2019-03-22T00:01:23.716Z,101591.67
2019-03-22T00:03:53.343Z,101589.83
2019-03-22T00:06:23.039Z,101590.30
2019-03-22T00:08:52.877Z,101590.30
2019-03-22T00:11:22.458Z,101585.41
2019-03-22T00:13:52.246Z,101585.41
2019-03-22T00:16:21.893Z,101578.90
2019-03-22T00:18:51.541Z,101586.36
2019-03-22T00:21:21.097Z,101586.36
2019-03-22T00:23:50.940Z,101579.50
2019-03-22T00:26:21.050Z,101576.37
2019-03-22T00:28:50.899Z,101580.59
2019-03-22T00:31:20.735Z,101573.83
2019-03-22T00:33:50.349Z,101575.50
2019-03-22T00:36:20.135Z,101575.50
2019-03-22T00:38:49.808Z,101571.90
2019-03-22T00:41:19.685Z,101564.77
2019-03-22T00:43:49.512Z,101554.73
2019-03-22T00:46:19.141Z,101554.73
2019-03-22T00:48:49.059Z,101553.66
2019-03-22T00:51:19.132Z,101548.70
2019-03-22T00:53:49.015Z,101548.89
2019-03-22T00:56:18.654Z,101540.58
2019-03-22T00:58:48.410Z,101540.58
2019-03-22T01:01:18.169Z,101553.16
2019-03-22T01:03:47.803Z,101546.99
2019-03-22T01:06:17.686Z,101545.86
2019-03-22T01:08:47.601Z,101545.86
2019-03-22T01:11:17.172Z,101550.81
2019-03-22T01:13:47.125Z,101550.47
2019-03-22T01:16:17.206Z,101549.52
2019-03-22T01:18:47.036Z,101547.97
2019-03-22T01:21:16.845Z,101549.48
2019-03-22T01:23:46.474Z,101553.73
2019-03-22T01:26:16.171Z,101544.89
2019-03-22T01:28:45.805Z,101535.60
2019-03-22T01:31:15.533Z,101535.60
2019-03-22T01:33:45.262Z,101547.07
2019-03-22T01:36:15.259Z,101542.72
2019-03-22T01:38:45.091Z,101534.72
2019-03-22T01:41:14.819Z,101534.72
2019-03-22T01:43:44.709Z,101546.16
2019-03-22T01:46:14.368Z,101546.16
2019-03-22T01:48:43.982Z,101539.73
2019-03-22T01:51:13.757Z,101539.67
2019-03-22T01:53:44.011Z,101545.19
2019-03-22T01:56:13.819Z,101545.19
2019-03-22T01:58:43.415Z,101539.17
2019-03-22T02:01:13.258Z,101539.17
2019-03-22T02:03:43.288Z,101538.22
2019-03-22T02:06:12.940Z,101530.14
2019-03-22T02:08:42.696Z,101541.72
2019-03-22T02:11:12.386Z,101541.72
2019-03-22T02:13:42.326Z,101543.58
2019-03-22T02:16:12.314Z,101543.20
2019-03-22T02:18:41.979Z,101546.70
2019-03-22T02:21:12.102Z,101543.11
2019-03-22T02:23:42.597Z,101538.28
2019-03-22T02:26:12.365Z,101537.30
2019-03-22T02:28:42.256Z,101538.51
2019-03-22T02:31:11.901Z,101531.52
2019-03-22T02:33:41.690Z,101531.52
2019-03-22T02:36:11.455Z,101528.28
2019-03-22T02:38:41.116Z,101522.87
2019-03-22T02:41:10.866Z,101530.70
2019-03-22T02:43:40.664Z,101531.78
2019-03-22T02:46:10.305Z,101534.29
2019-03-22T02:48:40.188Z,101534.29
2019-03-22T02:51:10.260Z,101530.78
2019-03-22T02:53:39.917Z,101534.41
2019-03-22T02:56:10.254Z,101527.78
2019-03-22T02:58:40.010Z,101530.55
2019-03-22T03:01:09.969Z,101531.05
2019-03-22T03:03:39.564Z,101524.87
2019-03-22T03:06:09.385Z,101525.28
2019-03-22T03:08:39.744Z,101526.59
2019-03-22T03:11:09.360Z,101533.23
2019-03-22T03:13:39.115Z,101539.38
2019-03-22T03:16:09.300Z,101528.87
2019-03-22T03:18:38.977Z,101534.80
2019-03-22T03:21:08.755Z,101537.05
2019-03-22T03:23:38.384Z,101537.41
2019-03-22T03:26:08.217Z,101532.45
2019-03-22T03:28:37.897Z,101534.13
2019-03-22T03:31:07.580Z,101527.52
2019-03-22T03:33:37.198Z,101537.29
2019-03-22T03:36:07.004Z,101531.14
2019-03-22T03:38:36.657Z,101530.40
2019-03-22T03:41:06.828Z,101528.02
2019-03-22T03:43:36.432Z,101531.49
2019-03-22T03:46:06.027Z,101533.08
2019-03-22T03:48:36.010Z,101536.67
2019-03-22T03:51:06.063Z,101532.23
2019-03-22T03:53:35.839Z,101539.35
2019-03-22T03:56:05.790Z,101535.92
2019-03-22T03:58:51.171Z,101535.11
2019-03-22T04:01:07.305Z,101538.84
2019-03-22T04:03:37.126Z,101537.25
2019-03-22T04:06:06.749Z,101533.04
2019-03-22T04:08:36.523Z,101533.04
2019-03-22T04:11:06.213Z,101534.30
2019-03-22T04:13:35.808Z,101542.47
2019-03-22T04:16:06.072Z,101543.79
2019-03-22T04:18:36.251Z,101534.58
2019-03-22T04:21:06.436Z,101539.36
2019-03-22T04:23:36.036Z,101545.19
2019-03-22T04:26:05.854Z,101547.94
2019-03-22T04:28:35.607Z,101551.05
2019-03-22T04:31:05.346Z,101547.98
2019-03-22T04:33:34.961Z,101542.59
2019-03-22T04:36:04.920Z,101549.25
2019-03-22T04:38:34.509Z,101547.98
2019-03-22T04:41:04.201Z,101546.09
2019-03-22T04:43:33.908Z,101546.41
2019-03-22T04:46:03.844Z,101547.28
2019-03-22T04:48:34.840Z,101547.63
2019-03-22T04:51:05.421Z,101544.26
2019-03-22T04:53:41.222Z,101544.70
2019-03-22T04:56:13.432Z,101545.01
2019-03-22T04:58:46.737Z,101552.98
2019-03-22T05:01:16.058Z,101550.07
2019-03-22T05:03:46.627Z,101553.03
2019-03-22T05:06:17.867Z,101553.38
2019-03-22T05:08:48.399Z,101550.28
2019-03-22T05:11:18.603Z,101551.50
2019-03-22T05:13:48.756Z,101550.08
2019-03-22T05:16:19.855Z,101544.77
2019-03-22T05:18:50.693Z,101550.52
2019-03-22T05:21:21.825Z,101551.95
2019-03-22T05:23:53.340Z,101549.86
2019-03-22T05:26:24.287Z,101554.58
2019-03-22T05:28:54.059Z,101553.39
2019-03-22T05:31:48.217Z,101552.91
2019-03-22T05:34:17.826Z,101558.33
2019-03-22T05:36:47.547Z,101555.56
2019-03-22T05:39:17.215Z,101557.66
2019-03-22T05:41:46.832Z,101561.16
2019-03-22T05:44:16.456Z,101566.58
2019-03-22T05:46:48.854Z,101564.70
2019-03-22T05:49:17.617Z,101575.05
2019-03-22T05:51:47.236Z,101569.05
2019-03-22T05:54:16.907Z,101577.24
2019-03-22T05:56:46.639Z,101588.12
2019-03-22T05:59:16.336Z,101588.12
2019-03-22T06:01:46.035Z,101589.71
2019-03-22T06:04:15.830Z,101589.13
2019-03-22T06:06:45.443Z,101585.03
2019-03-22T06:09:15.278Z,101583.84
2019-03-22T06:11:45.005Z,101585.52
2019-03-22T06:14:14.840Z,101579.97
2019-03-22T06:16:44.437Z,101579.97
2019-03-22T06:19:14.270Z,101585.63
2019-03-22T06:21:44.122Z,101585.63
2019-03-22T06:24:13.982Z,101595.96
2019-03-22T06:26:43.721Z,101595.96
2019-03-22T06:29:13.514Z,101601.83
2019-03-22T06:31:43.520Z,101601.83
2019-03-22T06:34:13.350Z,101601.05
2019-03-22T06:36:42.959Z,101594.97
2019-03-22T06:39:12.755Z,101603.89
2019-03-22T06:41:42.801Z,101595.57
2019-03-22T06:44:12.616Z,101595.57
2019-03-22T06:46:42.524Z,101602.68
2019-03-22T06:49:12.132Z,101597.39
2019-03-22T06:51:41.879Z,101600.72
2019-03-22T06:54:11.470Z,101600.83
2019-03-22T06:56:41.173Z,101591.05
2019-03-22T06:59:10.834Z,101591.05
2019-03-22T07:01:40.581Z,101587.48
2019-03-22T07:04:10.368Z,101599.63
2019-03-22T07:06:40.016Z,101596.30
2019-03-22T07:09:10.420Z,101599.93
2019-03-22T07:11:41.986Z,101601.59
2019-03-22T07:14:11.827Z,101610.86
2019-03-22T07:16:41.445Z,101604.39
2019-03-22T07:19:11.323Z,101607.20
2019-03-22T07:21:41.037Z,101600.96
2019-03-22T07:24:10.951Z,101600.15
2019-03-22T07:26:41.234Z,101593.17
2019-03-22T07:29:11.054Z,101592.81
2019-03-22T07:31:41.050Z,101591.12
2019-03-22T07:34:10.768Z,101587.42
2019-03-22T07:36:40.433Z,101583.36
2019-03-22T07:39:10.489Z,101572.09
2019-03-22T07:41:40.293Z,101567.97
2019-03-22T07:44:10.124Z,101564.79
2019-03-22T07:46:39.791Z,101557.98
2019-03-22T07:49:09.854Z,101557.34
2019-03-22T07:51:39.653Z,101552.22
2019-03-22T07:54:09.286Z,101547.89
2019-03-22T07:56:39.676Z,101545.55
2019-03-22T07:59:10.051Z,101542.52
2019-03-22T08:01:39.707Z,101541.85
2019-03-22T08:04:09.349Z,101548.05
2019-03-22T08:06:39.089Z,101546.22
2019-03-22T08:09:12.340Z,101545.20
2019-03-22T08:11:42.364Z,101547.36
2019-03-22T08:14:12.004Z,101537.83
2019-03-22T08:16:41.619Z,101545.60
2019-03-22T08:19:11.264Z,101543.62
2019-03-22T08:21:41.028Z,101543.64
2019-03-22T08:24:10.907Z,101537.33
2019-03-22T08:26:40.509Z,101537.91
2019-03-22T08:29:10.194Z,101538.37
2019-03-22T08:31:39.966Z,101533.85
2019-03-22T08:34:09.803Z,101524.81
2019-03-22T08:36:39.713Z,101527.58
2019-03-22T08:39:10.728Z,101521.23
2019-03-22T08:41:40.354Z,101519.06
2019-03-22T08:44:10.416Z,101523.83
2019-03-22T08:46:40.149Z,101523.77
2019-03-22T08:49:10.099Z,101521.96
2019-03-22T08:51:39.749Z,101517.27
2019-03-22T08:54:09.609Z,101515.91
2019-03-22T08:56:39.965Z,101509.97
2019-03-22T08:59:09.859Z,101509.28
2019-03-22T09:01:39.798Z,101508.45
2019-03-22T09:04:09.426Z,101510.14
2019-03-22T09:06:39.704Z,101515.84
2019-03-22T09:09:09.629Z,101519.00
2019-03-22T09:11:39.553Z,101514.25
2019-03-22T09:14:09.251Z,101514.66
2019-03-22T09:16:39.523Z,101517.95
2019-03-22T09:19:09.298Z,101517.03
2019-03-22T09:21:39.040Z,101512.75
2019-03-22T09:24:09.206Z,101511.94
2019-03-22T09:26:47.598Z,101517.98
2019-03-22T09:29:10.658Z,101510.42
2019-03-22T09:31:40.956Z,101516.74
2019-03-22T09:34:10.540Z,101509.81
2019-03-22T09:36:40.399Z,101509.72
2019-03-22T09:39:10.071Z,101504.16
2019-03-22T09:41:39.961Z,101506.59
2019-03-22T09:44:09.631Z,101503.12
2019-03-22T09:46:39.786Z,101504.03
2019-03-22T09:49:09.375Z,101496.55
2019-03-22T09:51:39.413Z,101492.48
2019-03-22T09:54:09.577Z,101495.05
2019-03-22T09:56:47.074Z,101495.05
2019-03-22T09:59:11.127Z,101489.95
2019-03-22T10:01:40.815Z,101478.61
2019-03-22T10:04:10.643Z,101486.73
2019-03-22T10:06:40.638Z,101480.83
2019-03-22T10:09:10.428Z,101474.28
2019-03-22T10:11:40.185Z,101474.27
2019-03-22T10:14:10.070Z,101467.97
2019-03-22T10:16:39.695Z,101467.64
2019-03-22T10:19:09.597Z,101461.48
2019-03-22T10:21:39.346Z,101463.28
2019-03-22T10:24:09.144Z,101467.95
2019-03-22T10:26:38.979Z,101464.52
2019-03-22T10:29:08.606Z,101462.86
2019-03-22T10:31:38.859Z,101460.34
2019-03-22T10:34:08.456Z,101466.08
2019-03-22T10:36:39.463Z,101463.91
2019-03-22T10:39:11.232Z,101462.74
2019-03-22T10:41:41.406Z,101465.75
2019-03-22T10:44:11.547Z,101459.72
2019-03-22T10:46:41.149Z,101456.48
2019-03-22T10:49:11.137Z,101450.27
2019-03-22T10:51:40.756Z,101452.73
2019-03-22T10:54:10.451Z,101447.59
2019-03-22T10:56:40.225Z,101451.36
2019-03-22T10:59:10.075Z,101454.45
2019-03-22T11:01:48.548Z,101454.74
2019-03-22T11:04:11.365Z,101455.11
2019-03-22T11:06:42.309Z,101447.92
2019-03-22T11:09:11.948Z,101450.11
2019-03-22T11:11:41.740Z,101447.86
2019-03-22T11:14:11.851Z,101454.23
2019-03-22T11:16:42.145Z,101448.41
2019-03-22T11:19:12.253Z,101448.11
2019-03-22T11:21:42.031Z,101443.84
2019-03-22T11:24:11.989Z,101439.01
2019-03-22T11:26:41.917Z,101437.85
2019-03-22T11:29:12.065Z,101434.52
2019-03-22T11:31:41.882Z,101432.86
2019-03-22T11:34:11.870Z,101434.17
2019-03-22T11:36:41.824Z,101435.28
2019-03-22T11:39:15.831Z,101430.63
2019-03-22T11:41:44.084Z,101436.27
2019-03-22T11:44:13.821Z,101433.66
2019-03-22T11:46:43.721Z,101429.97
2019-03-22T11:49:13.708Z,101434.84
2019-03-22T11:51:43.482Z,101425.33
2019-03-22T11:54:13.195Z,101425.28
2019-03-22T11:56:42.807Z,101427.39
2019-03-22T11:59:12.651Z,101420.89
2019-03-22T12:01:42.449Z,101418.91
2019-03-22T12:04:12.210Z,101420.75
2019-03-22T12:06:42.123Z,101421.44
2019-03-22T12:09:12.289Z,101409.72
2019-03-22T12:11:42.235Z,101407.44
2019-03-22T12:14:12.271Z,101399.06
2019-03-22T12:16:42.089Z,101399.61
2019-03-22T12:19:12.024Z,101401.86
2019-03-22T12:21:41.989Z,101405.40
2019-03-22T12:24:11.737Z,101399.81
2019-03-22T12:26:41.408Z,101398.16
2019-03-22T12:29:11.081Z,101399.00
2019-03-22T12:31:40.724Z,101393.47
2019-03-22T12:34:10.824Z,101399.91
2019-03-22T12:36:40.600Z,101398.55
2019-03-22T12:39:10.873Z,101392.13
2019-03-22T12:41:40.715Z,101387.97
2019-03-22T12:44:10.602Z,101382.82
2019-03-22T12:46:40.461Z,101389.63
2019-03-22T12:49:10.022Z,101378.91
2019-03-22T12:51:40.171Z,101377.26
2019-03-22T12:54:09.999Z,101380.55
2019-03-22T12:56:39.813Z,101367.30
2019-03-22T12:59:09.577Z,101363.94
2019-03-22T13:01:39.202Z,101365.83
2019-03-22T13:04:08.920Z,101356.77
2019-03-22T13:06:38.590Z,101357.59
2019-03-22T13:09:09.413Z,101357.18
2019-03-22T13:11:39.088Z,101356.63
2019-03-22T13:14:08.785Z,101348.66
2019-03-22T13:16:38.537Z,101348.26
2019-03-22T13:19:08.579Z,101345.14
2019-03-22T13:21:38.226Z,101338.92
2019-03-22T13:24:08.118Z,101339.23
2019-03-22T13:26:37.796Z,101335.05
2019-03-22T13:29:07.417Z,101334.56
2019-03-22T13:31:37.228Z,101335.69
2019-03-22T13:34:06.864Z,101328.27
2019-03-22T13:36:36.500Z,101324.84
2019-03-22T13:39:08.687Z,101323.81
2019-03-22T13:41:38.311Z,101330.16
2019-03-22T13:44:08.129Z,101323.77
2019-03-22T13:46:40.420Z,101312.63
2019-03-22T13:49:10.443Z,101310.20
2019-03-22T13:51:40.358Z,101311.67
2019-03-22T13:54:10.016Z,101308.28
2019-03-22T13:56:39.675Z,101311.70
2019-03-22T13:59:09.299Z,101310.25
2019-03-22T14:01:38.903Z,101302.69
2019-03-22T14:04:08.790Z,101296.39
2019-03-22T14:06:38.931Z,101290.68
2019-03-22T14:09:09.329Z,101290.87
2019-03-22T14:11:38.969Z,101295.97
2019-03-22T14:14:09.319Z,101288.94
2019-03-22T14:16:39.304Z,101290.68
2019-03-22T14:19:09.318Z,101292.92
2019-03-22T14:21:39.149Z,101286.00
2019-03-22T14:24:08.793Z,101276.80
2019-03-22T14:26:38.546Z,101284.47
2019-03-22T14:29:08.395Z,101281.72
2019-03-22T14:31:38.849Z,101276.05
2019-03-22T14:34:09.063Z,101275.75
2019-03-22T14:36:39.984Z,101267.73
2019-03-22T14:39:10.100Z,101271.28
2019-03-22T14:41:40.141Z,101264.48
2019-03-22T14:44:10.224Z,101265.69
2019-03-22T14:46:40.334Z,101255.70
2019-03-22T14:49:11.507Z,101262.69
2019-03-22T14:51:47.745Z,101258.14
2019-03-22T14:54:23.461Z,101255.08
2019-03-22T14:56:53.779Z,101251.09
2019-03-22T14:59:23.592Z,101243.04
2019-03-22T15:01:53.467Z,101246.66
2019-03-22T15:04:23.217Z,101241.22
2019-03-22T15:06:53.021Z,101240.98
2019-03-22T15:09:22.872Z,101243.64
2019-03-22T15:11:52.778Z,101236.94
2019-03-22T15:14:35.738Z,101236.06
2019-03-22T15:17:23.263Z,101228.69
2019-03-22T15:20:15.234Z,101218.74
2019-03-22T15:23:13.557Z,101219.37
2019-03-22T15:26:00.772Z,101216.87
2019-03-22T15:28:52.615Z,101214.02
2019-03-22T15:31:41.667Z,101211.11
2019-03-22T15:34:29.466Z,101204.08
2019-03-22T15:37:18.192Z,101199.95
2019-03-22T15:39:59.276Z,101202.86
2019-03-22T15:42:28.988Z,101194.93
2019-03-22T15:44:58.912Z,101189.48
2019-03-22T15:47:28.845Z,101194.27
2019-03-22T15:49:58.902Z,101192.63
2019-03-22T15:52:29.153Z,101183.45
2019-03-22T15:54:58.973Z,101188.08
2019-03-22T15:57:29.002Z,101188.55
2019-03-22T15:59:59.396Z,101189.91
2019-03-22T16:02:29.361Z,101184.62
2019-03-22T16:04:59.055Z,101191.33
2019-03-22T16:07:29.309Z,101192.25
2019-03-22T16:10:01.497Z,101189.59
2019-03-22T16:12:31.119Z,101193.52
2019-03-22T16:15:00.944Z,101192.25
2019-03-22T16:17:31.070Z,101189.33
2019-03-22T16:20:00.890Z,101189.69
2019-03-22T16:22:30.679Z,101181.93
2019-03-22T16:25:00.712Z,101183.13
2019-03-22T16:27:30.879Z,101183.82
2019-03-22T16:30:00.676Z,101184.59
2019-03-22T16:32:30.383Z,101183.27
2019-03-22T16:35:00.050Z,101186.31
2019-03-22T16:37:29.858Z,101186.63
2019-03-22T16:39:59.832Z,101196.98
2019-03-22T16:42:29.731Z,101191.02
2019-03-22T16:45:00.024Z,101188.59
2019-03-22T16:47:29.994Z,101187.86
2019-03-22T16:49:59.755Z,101184.40
2019-03-22T16:52:29.579Z,101184.70
2019-03-22T16:54:59.362Z,101187.73
2019-03-22T16:57:29.680Z,101191.27
2019-03-22T16:59:59.574Z,101182.28
2019-03-22T17:02:29.722Z,101191.70
2019-03-22T17:04:59.348Z,101195.39
2019-03-22T17:07:29.154Z,101198.23
2019-03-22T17:09:58.958Z,101196.30
2019-03-22T17:12:28.876Z,101200.84
2019-03-22T17:14:58.494Z,101196.80
2019-03-22T17:17:28.124Z,101201.33
2019-03-22T17:19:57.754Z,101197.55
2019-03-22T17:22:27.846Z,101193.94
2019-03-22T17:24:58.382Z,101199.98
2019-03-22T17:27:28.223Z,101196.34
2019-03-22T17:29:58.237Z,101203.88
2019-03-22T17:32:28.088Z,101200.27
2019-03-22T17:34:57.817Z,101200.73
2019-03-22T17:37:27.648Z,101203.07
2019-03-22T17:39:57.774Z,101208.19
2019-03-22T17:42:27.962Z,101208.94
2019-03-22T17:44:57.786Z,101205.86
2019-03-22T17:47:27.915Z,101209.40
2019-03-22T17:49:57.828Z,101213.78
2019-03-22T17:52:27.868Z,101210.06
2019-03-22T17:54:57.550Z,101209.30
2019-03-22T17:57:27.871Z,101205.66
2019-03-22T17:59:57.881Z,101204.81
2019-03-22T18:02:27.682Z,101210.43
2019-03-22T18:04:57.841Z,101216.86
2019-03-22T18:07:28.011Z,101210.82
2019-03-22T18:09:57.866Z,101222.61
2019-03-22T18:12:27.649Z,101220.72
2019-03-22T18:14:57.306Z,101224.08
2019-03-22T18:17:27.000Z,101224.00
2019-03-22T18:19:57.098Z,101215.20
2019-03-22T18:22:27.042Z,101228.03
2019-03-22T18:24:57.076Z,101227.03
2019-03-22T18:27:26.829Z,101232.52
2019-03-22T18:29:56.444Z,101234.08
2019-03-22T18:32:28.161Z,101233.37
2019-03-22T18:34:58.315Z,101234.08
2019-03-22T18:37:27.905Z,101227.42
2019-03-22T18:39:57.639Z,101234.47
2019-03-22T18:42:27.783Z,101233.93
2019-03-22T18:45:02.636Z,101236.99
2019-03-22T18:47:32.740Z,101230.78
2019-03-22T18:50:02.459Z,101227.42
2019-03-22T18:52:32.299Z,101227.62
2019-03-22T18:55:02.020Z,101230.59
2019-03-22T18:57:31.996Z,101226.39
2019-03-22T19:00:02.132Z,101228.42
2019-03-22T19:02:32.418Z,101228.19
2019-03-22T19:05:02.087Z,101231.14
2019-03-22T19:07:31.790Z,101234.63
2019-03-22T19:10:02.024Z,101232.14
2019-03-22T19:12:32.233Z,101236.64
2019-03-22T19:15:02.370Z,101238.23
2019-03-22T19:17:32.740Z,101238.20
2019-03-22T19:20:02.570Z,101230.77
2019-03-22T19:22:32.948Z,101234.09
2019-03-22T19:25:02.626Z,101237.75
2019-03-22T19:27:33.004Z,101224.14
2019-03-22T19:30:03.039Z,101231.77
2019-03-22T19:32:33.796Z,101235.69
2019-03-22T19:35:04.066Z,101236.09
2019-03-22T19:37:34.074Z,101238.90
2019-03-22T19:40:03.973Z,101235.66
2019-03-22T19:42:34.614Z,101243.20
2019-03-22T19:45:04.747Z,101245.60
2019-03-22T19:47:34.850Z,101241.75
2019-03-22T19:50:05.222Z,101129.70
2019-03-22T19:52:35.122Z,101243.65
2019-03-22T19:55:05.833Z,101245.69
2019-03-22T19:57:35.978Z,101250.08
2019-03-22T20:00:06.865Z,101243.08
2019-03-22T20:02:37.633Z,101250.65
2019-03-22T20:05:08.254Z,101249.16
2019-03-22T20:07:38.531Z,101259.55
2019-03-22T20:10:09.684Z,101254.55
2019-03-22T20:12:39.624Z,101259.12
2019-03-22T20:15:09.948Z,101258.94
2019-03-22T20:17:40.315Z,101255.80
2019-03-22T20:20:10.459Z,101262.48
2019-03-22T20:22:40.608Z,101260.16
2019-03-22T20:25:10.723Z,101255.98
2019-03-22T20:27:40.534Z,101253.66
2019-03-22T20:30:10.760Z,101258.18
2019-03-22T20:32:40.428Z,101254.98
2019-03-22T20:35:16.414Z,101258.34
2019-03-22T20:37:41.831Z,101248.32
2019-03-22T20:40:11.666Z,101251.66
2019-03-22T20:42:41.335Z,101256.00
2019-03-22T20:45:11.305Z,101256.51
2019-03-22T20:47:41.248Z,101253.81
2019-03-22T20:50:11.184Z,101253.98
2019-03-22T20:52:41.042Z,101250.80
2019-03-22T20:55:11.402Z,101244.11
2019-03-22T20:57:41.015Z,101243.43
2019-03-22T21:00:11.838Z,101252.44
2019-03-22T21:02:41.536Z,101250.06
2019-03-22T21:05:12.412Z,101252.92
2019-03-22T21:07:42.220Z,101254.42
2019-03-22T21:10:12.337Z,101248.55
2019-03-22T21:12:42.629Z,101256.09
2019-03-22T21:15:23.504Z,101258.92
2019-03-22T21:17:44.197Z,101255.73
2019-03-22T21:20:14.102Z,101253.38
2019-03-22T21:22:44.311Z,101248.55
2019-03-22T21:25:14.163Z,101250.02
2019-03-22T21:27:43.982Z,101255.80
2019-03-22T21:30:14.539Z,101248.91
2019-03-22T21:32:45.804Z,101250.38
2019-03-22T21:35:22.531Z,101251.91
2019-03-22T21:37:47.114Z,101248.91
2019-03-22T21:40:17.157Z,101246.38
2019-03-22T21:42:46.967Z,101251.20
2019-03-22T21:45:16.766Z,101251.19
2019-03-22T21:47:46.831Z,101246.33
2019-03-22T21:50:16.597Z,101245.21
2019-03-22T21:52:46.413Z,101242.80
2019-03-22T21:55:16.192Z,101248.81
2019-03-22T21:57:45.806Z,101251.76
2019-03-22T22:00:15.564Z,101245.05
2019-03-22T22:02:45.250Z,101248.68
2019-03-22T22:05:15.296Z,101246.14
2019-03-22T22:07:44.982Z,101247.78
2019-03-22T22:10:14.703Z,101245.20
2019-03-22T22:12:44.417Z,101239.53
2019-03-22T22:15:14.636Z,101243.78
2019-03-22T22:17:44.770Z,101241.52
2019-03-22T22:20:15.090Z,101245.56
2019-03-22T22:22:45.180Z,101235.61
2019-03-22T22:25:15.116Z,101238.62
2019-03-22T22:27:45.246Z,101236.67
2019-03-22T22:30:15.138Z,101247.91
2019-03-22T22:32:45.008Z,101243.24
2019-03-22T22:35:14.806Z,101238.08
2019-03-22T22:37:44.910Z,101237.11
2019-03-22T22:40:14.640Z,101235.33
2019-03-22T22:42:44.566Z,101237.30
2019-03-22T22:45:14.316Z,101230.29
2019-03-22T22:47:43.943Z,101232.58
2019-03-22T22:50:13.799Z,101230.19
2019-03-22T22:52:43.580Z,101230.99
2019-03-22T22:55:13.319Z,101230.39
2019-03-22T22:57:43.055Z,101225.77
2019-03-22T23:00:15.985Z,101225.66
2019-03-22T23:02:46.671Z,101220.20
2019-03-22T23:05:16.655Z,101224.28
2019-03-22T23:07:46.923Z,101223.43
2019-03-22T23:10:16.553Z,101224.84
2019-03-22T23:12:46.296Z,101220.73
2019-03-22T23:15:16.124Z,101220.73
2019-03-22T23:17:45.762Z,101227.73
2019-03-22T23:20:15.466Z,101226.31
2019-03-22T23:22:45.420Z,101228.32
2019-03-22T23:25:15.355Z,101219.49
2019-03-22T23:27:45.044Z,101221.62
2019-03-22T23:30:14.726Z,101216.86
2019-03-22T23:32:44.811Z,101225.31
2019-03-22T23:35:14.611Z,101224.70
2019-03-22T23:37:44.319Z,101228.21
2019-03-22T23:40:14.080Z,101236.27
2019-03-22T23:42:43.722Z,101233.94
2019-03-22T23:45:13.367Z,101237.18
2019-03-22T23:47:43.167Z,101237.18
2019-03-22T23:50:12.991Z,101236.72
2019-03-22T23:52:42.608Z,101243.21
2019-03-22T23:55:12.630Z,101245.75
2019-03-22T23:57:42.969Z,101242.34
